Time;durP1;ratioP1;P1;durP2;ratioP2;P2;SDS_P1;SDS_P2;PMS_P1;PMS_P2;Temp;Humidity;BMP_temperature;BMP_pressure;BME280_temperature;BME280_humidity;BME280_pressure;Samples;Min_cycle;Max_cycle;Signal;HPM_P1;HPM_P2
2023/01/19 00:01:29;;;;;;;60.22;35.10;;;3.20;99.90;;;;;;4934952;29;20215;-86
2023/01/19 00:03:57;;;;;;;65.90;35.65;;;3.50;99.90;;;;;;4929559;29;20211;-86
2023/01/19 00:06:24;;;;;;;54.88;33.65;;;3.60;99.90;;;;;;4915284;29;20234;-84
2023/01/19 00:08:51;;;;;;;61.58;35.13;;;3.70;99.90;;;;;;4936709;29;20210;-83
2023/01/19 00:11:22;;;;;;;56.80;34.78;;;3.70;99.90;;;;;;4933379;29;20271;-86
2023/01/19 00:13:52;;;;;;;50.47;29.58;;;3.60;99.90;;;;;;4922265;29;20302;-87
2023/01/19 00:16:21;;;;;;;55.60;33.95;;;3.70;99.90;;;;;;4923348;29;20207;-85
2023/01/19 00:18:51;;;;;;;60.55;34.42;;;3.90;99.90;;;;;;4920097;29;20211;-86
2023/01/19 00:21:21;;;;;;;59.45;34.00;;;3.90;99.90;;;;;;4924248;29;20239;-86
2023/01/19 00:23:53;;;;;;;56.58;32.33;;;4.20;99.90;;;;;;4928858;29;20265;-87
2023/01/19 00:26:30;;;;;;;62.58;35.70;;;4.40;99.90;;;;;;4948474;29;20233;-86
2023/01/19 00:28:58;;;;;;;59.20;31.90;;;4.30;99.90;;;;;;4928984;29;20297;-87
2023/01/19 00:31:25;;;;;;;59.78;35.30;;;4.30;99.90;;;;;;4927053;29;20223;-87
2023/01/19 00:33:53;;;;;;;58.20;33.35;;;4.30;99.90;;;;;;4925457;29;20215;-87
2023/01/19 00:36:21;;;;;;;57.85;33.30;;;4.20;99.90;;;;;;4921424;29;20238;-87
2023/01/19 00:38:49;;;;;;;59.55;35.30;;;4.30;99.90;;;;;;4920173;29;20220;-87
2023/01/19 00:41:17;;;;;;;60.60;33.83;;;4.40;99.90;;;;;;4930775;29;20239;-87
2023/01/19 00:43:45;;;;;;;53.13;31.95;;;4.60;99.90;;;;;;4921279;29;20222;-86
2023/01/19 00:46:12;;;;;;;61.92;35.83;;;4.60;99.90;;;;;;4920616;29;20234;-87
2023/01/19 00:48:39;;;;;;;57.97;34.15;;;4.40;99.90;;;;;;4920566;29;20216;-85
2023/01/19 00:51:06;;;;;;;59.55;34.47;;;4.60;99.90;;;;;;4929372;29;20218;-86
2023/01/19 00:53:33;;;;;;;64.97;36.78;;;4.30;99.90;;;;;;4922618;29;20420;-85
2023/01/19 00:56:02;;;;;;;58.53;32.83;;;4.20;99.90;;;;;;4922650;29;20228;-86
2023/01/19 00:58:29;;;;;;;52.25;31.67;;;4.30;99.90;;;;;;4924369;29;20219;-86
2023/01/19 01:01:02;;;;;;;59.58;33.10;;;4.50;99.90;;;;;;4924499;29;20207;-85
2023/01/19 01:03:30;;;;;;;55.60;32.13;;;4.50;99.90;;;;;;4923106;29;20207;-86
2023/01/19 01:05:58;;;;;;;64.90;34.47;;;4.10;99.90;;;;;;4930879;29;20234;-86
2023/01/19 01:08:29;;;;;;;55.17;31.83;;;4.00;99.90;;;;;;4924854;29;20214;-87
2023/01/19 01:10:56;;;;;;;55.55;32.50;;;4.10;99.90;;;;;;4927281;29;20207;-87
2023/01/19 01:13:24;;;;;;;62.95;35.40;;;4.10;99.90;;;;;;4926546;29;20210;-85
2023/01/19 01:15:55;;;;;;;59.42;33.08;;;4.00;99.90;;;;;;4926551;29;20229;-87
2023/01/19 01:18:23;;;;;;;55.15;33.65;;;4.20;99.90;;;;;;4931692;29;20282;-86
2023/01/19 01:20:51;;;;;;;47.15;28.75;;;3.90;99.90;;;;;;4929225;29;20211;-87
2023/01/19 01:23:21;;;;;;;35.65;21.88;;;3.70;99.90;;;;;;4926074;29;20601;-86
2023/01/19 01:25:49;;;;;;;34.70;21.30;;;3.30;99.90;;;;;;4927721;29;20238;-85
2023/01/19 01:28:16;;;;;;;32.92;19.42;;;3.20;99.90;;;;;;4928098;29;20248;-85
2023/01/19 01:30:43;;;;;;;28.42;18.65;;;3.10;99.90;;;;;;4928457;29;20215;-86
2023/01/19 01:33:10;;;;;;;26.10;16.70;;;3.10;99.90;;;;;;4932129;29;20206;-86
2023/01/19 01:35:39;;;;;;;25.05;15.90;;;3.00;99.90;;;;;;4929754;29;20245;-85
2023/01/19 01:38:06;;;;;;;24.75;16.25;;;3.10;99.90;;;;;;4941824;29;20226;-86
2023/01/19 01:40:35;;;;;;;20.25;14.55;;;3.20;99.90;;;;;;4927934;29;20215;-86
2023/01/19 01:43:02;;;;;;;18.48;13.57;;;3.10;99.90;;;;;;4928471;29;20753;-86
2023/01/19 01:45:37;;;;;;;15.90;10.98;;;3.00;99.90;;;;;;4926462;29;20306;-85
2023/01/19 01:48:18;;;;;;;19.40;12.40;;;2.90;99.90;;;;;;4926141;29;20202;-84
2023/01/19 01:53:46;;;;;;;11.25;9.02;;;2.70;99.90;;;;;;4929540;29;20249;-86
2023/01/19 01:56:22;;;;;;;12.07;8.88;;;2.90;99.90;;;;;;4931646;29;20214;-84
2023/01/19 01:58:50;;;;;;;10.60;8.75;;;2.90;99.90;;;;;;4920874;29;20242;-88
2023/01/19 02:04:04;;;;;;;13.00;10.20;;;2.90;99.90;;;;;;4918208;29;20209;-85
2023/01/19 02:06:33;;;;;;;9.90;8.55;;;2.90;99.90;;;;;;4929532;29;20233;-88
2023/01/19 02:14:40;;;;;;;12.55;8.57;;;3.00;99.90;;;;;;4925368;29;20208;-86
2023/01/19 02:17:07;;;;;;;10.80;8.23;;;3.20;99.90;;;;;;4925375;29;20258;-86
2023/01/19 02:19:42;;;;;;;9.73;7.97;;;3.50;99.90;;;;;;4930093;29;20199;-85
2023/01/19 02:22:16;;;;;;;10.60;9.05;;;3.30;99.90;;;;;;4927682;29;20637;-86
2023/01/19 02:24:43;;;;;;;10.18;8.55;;;3.40;99.90;;;;;;4925579;29;20210;-85
2023/01/19 02:27:11;;;;;;;8.82;7.93;;;3.20;99.90;;;;;;4928869;29;20640;-85
2023/01/19 02:29:39;;;;;;;9.07;8.18;;;3.30;99.90;;;;;;4939130;29;20691;-85
2023/01/19 02:32:06;;;;;;;10.85;7.75;;;3.20;99.90;;;;;;4926073;29;20213;-85
2023/01/19 02:34:36;;;;;;;9.40;8.40;;;3.20;99.90;;;;;;4930039;29;20275;-84
2023/01/19 02:37:11;;;;;;;10.18;8.40;;;3.00;99.90;;;;;;4931284;29;20231;-85
2023/01/19 02:40:00;;;;;;;10.88;8.57;;;3.20;99.90;;;;;;4924184;29;20211;-85
2023/01/19 02:42:44;;;;;;;7.45;6.65;;;3.20;99.90;;;;;;4925502;29;20460;-85
2023/01/19 02:45:14;;;;;;;7.28;6.55;;;3.00;99.90;;;;;;4924539;29;20210;-85
2023/01/19 02:47:48;;;;;;;9.80;7.72;;;3.00;99.90;;;;;;4925237;29;20238;-86
2023/01/19 02:50:40;;;;;;;7.18;6.47;;;2.90;99.90;;;;;;4927348;29;20233;-85
2023/01/19 02:53:26;;;;;;;7.93;6.90;;;2.70;99.90;;;;;;4916935;29;20223;-86
2023/01/19 02:56:22;;;;;;;6.97;6.25;;;2.70;99.90;;;;;;4923667;29;20210;-85
2023/01/19 02:59:04;;;;;;;5.45;4.95;;;2.70;99.90;;;;;;4940235;29;20204;-86
2023/01/19 03:01:50;;;;;;;6.07;5.43;;;2.50;99.90;;;;;;4934365;29;20197;-83
2023/01/19 03:04:35;;;;;;;6.35;5.75;;;2.30;99.90;;;;;;4923090;29;20559;-85
2023/01/19 03:07:19;;;;;;;8.35;6.10;;;2.40;99.90;;;;;;4918936;29;20659;-84
2023/01/19 03:09:56;;;;;;;7.00;6.35;;;2.50;99.90;;;;;;4927523;29;20454;-84
2023/01/19 03:12:46;;;;;;;8.85;5.80;;;2.50;99.90;;;;;;4929028;28;20218;-83
2023/01/19 03:15:27;;;;;;;8.18;6.05;;;2.40;99.90;;;;;;4922136;29;20190;-84
2023/01/19 03:17:58;;;;;;;7.43;5.93;;;2.40;99.90;;;;;;4923683;29;20547;-85
2023/01/19 03:20:27;;;;;;;6.82;6.15;;;2.50;99.90;;;;;;4935288;29;20260;-86
2023/01/19 03:23:00;;;;;;;7.60;6.05;;;2.40;99.90;;;;;;4926670;29;20202;-86
2023/01/19 03:25:34;;;;;;;8.13;6.47;;;2.40;99.90;;;;;;4925205;29;20410;-86
2023/01/19 03:28:03;;;;;;;6.82;6.10;;;2.30;99.90;;;;;;4924881;29;20620;-85
2023/01/19 03:30:44;;;;;;;8.85;6.55;;;2.40;99.90;;;;;;4924612;29;20316;-86
2023/01/19 03:33:21;;;;;;;6.88;6.25;;;2.40;99.90;;;;;;4923379;29;20199;-86
2023/01/19 03:35:51;;;;;;;7.90;7.03;;;2.40;99.90;;;;;;4916097;29;20218;-85
2023/01/19 03:38:24;;;;;;;9.02;6.75;;;2.50;99.90;;;;;;4924531;29;20206;-85
2023/01/19 03:41:00;;;;;;;6.93;6.30;;;2.40;99.90;;;;;;4912429;29;20207;-86
2023/01/19 03:43:30;;;;;;;8.43;7.57;;;2.30;99.90;;;;;;4923712;29;20509;-85
2023/01/19 03:45:59;;;;;;;7.95;6.95;;;2.30;99.90;;;;;;4926369;29;20226;-86
2023/01/19 03:48:26;;;;;;;8.98;8.05;;;2.20;99.90;;;;;;4922794;29;20211;-85
2023/01/19 03:50:54;;;;;;;11.68;8.65;;;2.20;99.90;;;;;;4916841;29;20225;-86
2023/01/19 03:53:23;;;;;;;12.90;9.90;;;2.30;99.90;;;;;;4925792;29;20581;-86
2023/01/19 03:55:53;;;;;;;10.18;8.27;;;2.30;99.90;;;;;;4921887;29;20501;-85
2023/01/19 03:58:22;;;;;;;12.18;10.57;;;2.30;99.90;;;;;;4923284;29;20397;-83
2023/01/19 04:00:49;;;;;;;12.38;10.05;;;2.20;99.90;;;;;;4931482;29;20207;-84
2023/01/19 04:03:20;;;;;;;10.10;8.63;;;2.20;99.90;;;;;;4923727;29;20418;-84
2023/01/19 04:05:47;;;;;;;11.15;9.00;;;2.20;99.90;;;;;;4923257;29;20259;-85
2023/01/19 04:08:14;;;;;;;12.60;9.77;;;2.20;99.90;;;;;;4923798;29;20215;-86
2023/01/19 04:10:43;;;;;;;11.75;9.07;;;2.20;99.90;;;;;;4914903;29;20220;-86
2023/01/19 04:13:10;;;;;;;14.90;10.35;;;2.20;99.90;;;;;;4954441;28;20213;-86
2023/01/19 04:15:37;;;;;;;12.93;11.38;;;2.20;99.90;;;;;;4923776;29;20204;-86
2023/01/19 04:18:05;;;;;;;13.10;10.60;;;2.20;99.90;;;;;;4914867;29;20217;-89
2023/01/19 04:20:34;;;;;;;15.23;10.95;;;2.30;99.90;;;;;;4937422;29;20270;-83
2023/01/19 04:23:02;;;;;;;15.98;12.60;;;2.30;99.90;;;;;;4922531;29;20260;-84
2023/01/19 04:25:30;;;;;;;16.38;11.25;;;2.30;99.90;;;;;;4922934;28;20241;-85
2023/01/19 04:27:58;;;;;;;16.60;12.73;;;2.30;99.90;;;;;;4922918;29;20230;-82
2023/01/19 04:30:26;;;;;;;16.40;11.70;;;2.20;99.90;;;;;;4922872;29;20627;-83
2023/01/19 04:32:55;;;;;;;19.00;13.77;;;2.30;99.90;;;;;;4921938;29;20205;-84
2023/01/19 04:35:22;;;;;;;21.00;15.15;;;2.30;99.90;;;;;;4926495;29;20210;-83
2023/01/19 04:37:52;;;;;;;19.05;12.60;;;2.30;99.90;;;;;;4921418;29;20746;-82
2023/01/19 04:40:19;;;;;;;19.17;14.32;;;2.30;99.90;;;;;;4921384;29;20514;-83
2023/01/19 04:42:47;;;;;;;20.75;15.18;;;2.30;99.90;;;;;;4922326;29;20249;-85
2023/01/19 04:45:14;;;;;;;20.38;15.32;;;2.30;99.90;;;;;;4922381;29;20383;-83
2023/01/19 04:47:41;;;;;;;22.70;14.13;;;2.30;99.90;;;;;;4953815;28;20297;-83
2023/01/19 04:50:09;;;;;;;19.02;13.35;;;2.30;99.90;;;;;;4930006;29;20531;-83
2023/01/19 04:52:37;;;;;;;20.00;13.63;;;2.30;99.90;;;;;;4914373;29;20223;-82
2023/01/19 04:55:05;;;;;;;23.00;16.20;;;2.30;99.90;;;;;;4925609;29;20414;-83
2023/01/19 04:57:33;;;;;;;26.52;15.10;;;2.40;99.90;;;;;;4924529;29;20203;-83
2023/01/19 05:00:07;;;;;;;22.52;15.10;;;2.40;99.90;;;;;;4924842;29;20210;-83
2023/01/19 05:02:34;;;;;;;15.90;13.13;;;2.40;99.90;;;;;;4936530;29;20214;-86
2023/01/19 05:05:04;;;;;;;26.27;16.38;;;2.40;99.90;;;;;;4936378;29;20674;-85
2023/01/19 05:07:31;;;;;;;23.80;16.67;;;2.30;99.90;;;;;;4943257;29;20268;-85
2023/01/19 05:10:00;;;;;;;16.42;12.57;;;2.40;99.90;;;;;;4938665;29;20229;-84
2023/01/19 05:12:30;;;;;;;29.38;18.50;;;2.40;99.90;;;;;;4940492;29;20214;-85
2023/01/19 05:14:58;;;;;;;18.27;14.40;;;2.50;99.90;;;;;;4924965;29;20253;-85
2023/01/19 05:17:25;;;;;;;20.67;16.13;;;2.70;99.90;;;;;;4926574;29;20212;-85
2023/01/19 05:19:52;;;;;;;22.40;15.65;;;2.70;99.90;;;;;;4926631;29;20262;-84
2023/01/19 05:22:20;;;;;;;24.38;18.10;;;2.50;99.90;;;;;;4942656;29;20226;-83
2023/01/19 05:24:47;;;;;;;25.80;17.83;;;2.60;99.90;;;;;;4926668;29;20275;-84
2023/01/19 05:27:15;;;;;;;19.33;14.07;;;2.50;99.90;;;;;;4928489;29;20728;-84
2023/01/19 05:29:42;;;;;;;21.65;13.57;;;2.50;99.90;;;;;;4928527;29;20214;-84
2023/01/19 05:32:10;;;;;;;18.08;13.07;;;2.50;99.90;;;;;;4927551;29;20269;-82
2023/01/19 05:34:38;;;;;;;20.10;13.50;;;2.40;99.90;;;;;;4928239;29;20337;-85
2023/01/19 05:37:07;;;;;;;18.40;12.95;;;2.40;99.90;;;;;;4931501;29;20212;-85
2023/01/19 05:39:35;;;;;;;14.57;11.77;;;2.40;99.90;;;;;;4949953;29;20520;-85
2023/01/19 05:42:02;;;;;;;14.10;11.77;;;2.30;99.90;;;;;;4937866;29;20453;-84
2023/01/19 05:44:29;;;;;;;15.40;12.95;;;2.30;99.90;;;;;;4923786;29;20249;-84
2023/01/19 05:46:56;;;;;;;18.17;13.57;;;2.30;99.90;;;;;;4926228;29;20242;-83
2023/01/19 05:49:25;;;;;;;12.82;10.40;;;2.30;99.90;;;;;;4931143;29;20569;-85
2023/01/19 05:51:54;;;;;;;12.95;10.43;;;2.40;99.90;;;;;;4930694;29;20241;-84
2023/01/19 05:54:23;;;;;;;14.98;11.13;;;2.50;99.90;;;;;;4930029;29;20217;-86
2023/01/19 05:56:51;;;;;;;12.40;10.27;;;2.40;99.90;;;;;;4928602;29;20232;-83
2023/01/19 05:59:22;;;;;;;11.93;9.80;;;2.50;99.90;;;;;;4928877;29;20225;-83
2023/01/19 06:01:56;;;;;;;11.73;9.68;;;2.60;99.90;;;;;;4927574;29;20213;-83
2023/01/19 06:04:24;;;;;;;15.07;12.23;;;2.40;99.90;;;;;;4928079;29;20209;-83
2023/01/19 06:06:53;;;;;;;13.20;10.07;;;2.40;99.90;;;;;;4926166;29;20238;-85
2023/01/19 06:09:20;;;;;;;17.27;13.00;;;2.50;99.90;;;;;;4925232;29;20214;-83
2023/01/19 06:11:48;;;;;;;14.23;11.55;;;2.40;99.90;;;;;;4914584;29;20218;-85
2023/01/19 06:14:15;;;;;;;12.63;10.05;;;2.40;99.90;;;;;;4926338;29;20215;-85
2023/01/19 06:16:46;;;;;;;11.40;10.20;;;2.50;99.90;;;;;;4920673;29;20276;-83
2023/01/19 06:19:13;;;;;;;11.48;10.15;;;2.40;99.90;;;;;;4925577;29;20202;-82
2023/01/19 06:21:42;;;;;;;12.23;8.52;;;2.30;99.90;;;;;;4923789;29;20203;-82
2023/01/19 06:24:09;;;;;;;12.43;9.55;;;2.30;99.90;;;;;;4922743;29;20602;-82
2023/01/19 06:26:42;;;;;;;11.05;9.90;;;2.30;99.90;;;;;;4924662;29;20229;-86
2023/01/19 06:29:11;;;;;;;13.68;10.50;;;2.30;99.90;;;;;;4928279;29;20448;-83
2023/01/19 06:31:41;;;;;;;10.55;8.43;;;2.30;99.90;;;;;;4926717;29;20448;-86
2023/01/19 06:34:09;;;;;;;11.02;8.65;;;2.30;99.90;;;;;;4936773;29;20218;-85
2023/01/19 06:36:38;;;;;;;11.23;9.63;;;2.40;99.90;;;;;;4928049;29;20393;-85
2023/01/19 06:39:06;;;;;;;13.90;12.35;;;2.40;99.90;;;;;;4933194;29;20214;-85
2023/01/19 06:41:33;;;;;;;14.48;11.82;;;2.30;99.90;;;;;;4928045;29;20599;-86
2023/01/19 06:44:01;;;;;;;13.98;11.70;;;2.20;99.90;;;;;;4931423;29;20211;-85
2023/01/19 06:46:28;;;;;;;12.45;10.40;;;2.20;99.90;;;;;;4925074;29;20258;-85
2023/01/19 06:48:56;;;;;;;13.35;10.45;;;2.20;99.90;;;;;;4933110;29;20213;-85
2023/01/19 06:51:23;;;;;;;14.05;11.52;;;2.30;99.90;;;;;;4937434;29;20476;-85
2023/01/19 06:53:50;;;;;;;12.73;10.13;;;2.20;99.90;;;;;;4948936;29;20260;-85
2023/01/19 06:56:17;;;;;;;12.35;9.75;;;2.20;99.90;;;;;;4930224;29;20215;-85
2023/01/19 06:58:47;;;;;;;16.13;11.13;;;2.20;99.90;;;;;;4925479;29;20200;-86
2023/01/19 07:01:13;;;;;;;17.20;10.85;;;2.10;99.90;;;;;;4935429;29;20524;-86
2023/01/19 07:03:41;;;;;;;15.02;10.52;;;2.10;99.90;;;;;;4918262;29;20214;-87
2023/01/19 07:06:08;;;;;;;12.40;9.95;;;2.10;99.90;;;;;;4928512;29;20209;-86
2023/01/19 07:08:36;;;;;;;17.27;11.43;;;2.10;99.90;;;;;;4932675;29;20226;-86
2023/01/19 07:11:08;;;;;;;15.30;11.70;;;2.10;99.90;;;;;;4931921;29;20253;-84
2023/01/19 07:13:55;;;;;;;15.32;11.93;;;2.20;99.90;;;;;;4924806;29;20213;-87
2023/01/19 07:16:22;;;;;;;13.63;10.73;;;2.10;99.90;;;;;;4942075;29;20212;-85
2023/01/19 07:18:49;;;;;;;12.00;10.35;;;2.10;99.90;;;;;;4918817;29;20213;-86
2023/01/19 07:21:17;;;;;;;13.88;10.35;;;2.10;99.90;;;;;;4954123;28;20206;-86
2023/01/19 07:23:47;;;;;;;12.80;11.50;;;2.10;99.90;;;;;;4933832;29;20446;-85
2023/01/19 07:26:17;;;;;;;16.33;11.65;;;2.00;99.90;;;;;;4928382;29;20217;-87
2023/01/19 07:28:44;;;;;;;16.20;12.05;;;2.00;99.90;;;;;;4932587;29;20269;-86
2023/01/19 07:31:14;;;;;;;13.73;10.70;;;2.10;99.90;;;;;;4936142;29;20204;-87
2023/01/19 07:33:42;;;;;;;18.80;12.65;;;2.10;99.90;;;;;;4921372;29;20230;-85
2023/01/19 07:36:09;;;;;;;16.75;12.52;;;2.10;99.90;;;;;;4923637;29;20271;-85
2023/01/19 07:38:36;;;;;;;14.45;11.75;;;2.20;99.90;;;;;;4924165;29;20217;-87
2023/01/19 07:41:05;;;;;;;20.08;11.15;;;2.20;99.90;;;;;;4921846;29;20221;-88
2023/01/19 07:43:33;;;;;;;20.35;11.80;;;2.10;99.90;;;;;;4923842;29;20233;-86
2023/01/19 07:46:02;;;;;;;18.60;12.60;;;2.20;99.90;;;;;;4924542;29;20421;-86
2023/01/19 07:48:30;;;;;;;17.33;12.85;;;2.20;99.90;;;;;;4922559;29;20233;-85
2023/01/19 07:51:04;;;;;;;12.52;10.85;;;2.20;99.90;;;;;;4922993;29;20512;-86
2023/01/19 07:53:31;;;;;;;13.15;10.80;;;2.20;99.90;;;;;;4924905;29;20214;-86
2023/01/19 07:55:59;;;;;;;13.20;10.50;;;2.10;99.90;;;;;;4928746;29;20217;-85
2023/01/19 07:58:26;;;;;;;17.58;11.68;;;2.20;99.90;;;;;;4925687;29;20194;-88
2023/01/19 08:00:53;;;;;;;17.55;13.10;;;2.10;99.90;;;;;;4932885;29;20274;-87
2023/01/19 08:03:21;;;;;;;15.38;11.90;;;2.10;99.90;;;;;;4935005;29;20277;-86
2023/01/19 08:05:50;;;;;;;17.98;11.80;;;2.10;99.90;;;;;;4943730;29;20208;-86
2023/01/19 08:08:18;;;;;;;14.52;11.52;;;2.10;99.90;;;;;;4931666;29;20230;-87
2023/01/19 08:10:49;;;;;;;14.60;12.20;;;2.10;99.90;;;;;;4924778;29;20209;-86
2023/01/19 08:13:16;;;;;;;20.13;13.63;;;2.10;99.90;;;;;;4928404;29;20297;-86
2023/01/19 08:15:43;;;;;;;17.88;12.05;;;2.00;99.90;;;;;;4920926;29;20210;-87
2023/01/19 08:18:10;;;;;;;26.58;12.45;;;2.10;99.90;;;;;;4921669;29;20250;-87
2023/01/19 08:20:37;;;;;;;13.52;11.60;;;2.20;99.90;;;;;;4934124;29;20246;-85
2023/01/19 08:23:06;;;;;;;20.50;13.43;;;2.30;99.90;;;;;;4932370;29;20731;-86
2023/01/19 08:25:36;;;;;;;21.50;13.68;;;2.40;99.90;;;;;;4935654;29;20553;-86
2023/01/19 08:28:05;;;;;;;17.20;13.00;;;2.40;99.90;;;;;;4918933;29;20237;-85
2023/01/19 08:30:32;;;;;;;17.70;11.52;;;2.20;99.90;;;;;;4930086;29;20213;-87
2023/01/19 08:33:03;;;;;;;20.02;13.90;;;2.10;99.90;;;;;;4926995;29;20217;-86
2023/01/19 08:35:32;;;;;;;20.50;13.98;;;2.10;99.90;;;;;;4921248;29;20212;-86
2023/01/19 08:38:00;;;;;;;18.83;11.00;;;2.00;99.90;;;;;;4922211;29;20206;-87
2023/01/19 08:40:28;;;;;;;17.05;13.32;;;1.90;99.90;;;;;;4919830;29;20222;-87
2023/01/19 08:43:03;;;;;;;17.00;13.73;;;1.80;99.90;;;;;;4922267;29;20257;-85
2023/01/19 08:45:31;;;;;;;15.02;12.48;;;1.80;99.90;;;;;;4921093;29;20201;-86
2023/01/19 08:47:58;;;;;;;15.65;11.52;;;1.80;99.90;;;;;;4919132;29;20245;-87
2023/01/19 08:50:26;;;;;;;16.27;11.25;;;1.80;99.90;;;;;;4924162;29;20241;-88
2023/01/19 08:52:58;;;;;;;17.55;12.20;;;1.80;99.90;;;;;;4928663;29;20212;-87
2023/01/19 08:55:28;;;;;;;16.77;12.10;;;1.80;99.90;;;;;;4932936;29;20248;-86
2023/01/19 08:57:57;;;;;;;14.07;11.43;;;1.90;99.90;;;;;;4923499;29;20206;-88
2023/01/19 09:00:26;;;;;;;19.58;13.73;;;2.10;99.90;;;;;;4916862;29;20213;-87
2023/01/19 09:02:55;;;;;;;13.93;11.43;;;1.90;99.90;;;;;;4933005;29;20204;-85
2023/01/19 09:05:22;;;;;;;16.52;12.32;;;2.00;99.90;;;;;;4941864;29;20210;-86
2023/01/19 09:07:50;;;;;;;17.92;12.93;;;2.10;99.90;;;;;;4945807;29;20237;-85
2023/01/19 09:10:17;;;;;;;16.90;11.57;;;2.40;99.90;;;;;;4926207;29;20596;-88
2023/01/19 09:12:45;;;;;;;15.73;11.60;;;2.40;99.90;;;;;;4921373;29;20499;-87
2023/01/19 09:15:13;;;;;;;16.67;11.93;;;2.40;99.90;;;;;;4926528;29;20288;-85
2023/01/19 09:17:43;;;;;;;12.75;10.27;;;2.40;99.90;;;;;;4938108;29;20216;-86
2023/01/19 09:20:10;;;;;;;15.10;11.32;;;2.30;99.90;;;;;;4920838;29;20213;-86
2023/01/19 09:22:38;;;;;;;15.30;9.85;;;2.50;99.90;;;;;;4925292;29;20206;-87
2023/01/19 09:25:06;;;;;;;13.73;9.52;;;2.40;99.90;;;;;;4920835;29;20209;-86
2023/01/19 09:27:33;;;;;;;12.90;8.55;;;2.30;99.90;;;;;;4920945;29;20287;-87
2023/01/19 09:30:02;;;;;;;12.25;8.63;;;2.30;99.90;;;;;;4909630;29;20208;-86
2023/01/19 09:32:29;;;;;;;13.07;9.70;;;2.30;99.90;;;;;;4927384;29;20222;-87
2023/01/19 09:34:57;;;;;;;12.00;7.65;;;2.20;99.90;;;;;;4933562;29;20462;-87
2023/01/19 09:37:24;;;;;;;13.57;8.63;;;2.20;99.90;;;;;;4919078;29;20510;-86
2023/01/19 09:39:51;;;;;;;9.82;7.47;;;2.10;99.90;;;;;;4917960;29;20220;-88
2023/01/19 09:42:46;;;;;;;11.35;8.00;;;2.20;99.90;;;;;;4935389;29;20266;-86
2023/01/19 09:45:47;;;;;;;10.60;7.53;;;2.50;99.90;;;;;;4921262;29;20284;-87
2023/01/19 09:48:30;;;;;;;10.38;7.15;;;2.40;99.90;;;;;;4922931;29;20224;-86
2023/01/19 09:51:01;;;;;;;12.50;7.68;;;2.50;99.90;;;;;;4951755;29;20198;-87
2023/01/19 09:54:13;;;;;;;10.63;6.90;;;2.60;99.90;;;;;;4938584;29;20210;-87
2023/01/19 09:56:42;;;;;;;8.48;7.32;;;2.60;99.90;;;;;;4916773;29;20265;-86
2023/01/19 09:59:23;;;;;;;17.20;10.32;;;2.70;99.90;;;;;;4939607;29;20383;-86
2023/01/19 10:02:29;;;;;;;16.95;9.93;;;2.70;99.90;;;;;;4924987;29;20206;-87
2023/01/19 10:05:20;;;;;;;9.32;7.60;;;2.80;99.90;;;;;;4918203;29;20218;-86
2023/01/19 10:08:17;;;;;;;8.95;6.78;;;2.90;99.90;;;;;;4931058;29;20240;-89
2023/01/19 10:10:52;;;;;;;7.95;7.13;;;2.90;99.90;;;;;;4937765;29;20207;-88
2023/01/19 10:13:33;;;;;;;11.48;7.13;;;2.90;99.90;;;;;;4936731;29;20210;-85
2023/01/19 10:16:17;;;;;;;11.20;8.07;;;2.70;99.90;;;;;;4926812;29;20378;-88
2023/01/19 10:18:47;;;;;;;13.77;6.75;;;2.60;99.90;;;;;;4933583;29;20215;-88
2023/01/19 10:21:37;;;;;;;12.10;7.60;;;2.60;99.90;;;;;;4926517;29;20264;-86
2023/01/19 10:24:22;;;;;;;9.95;7.40;;;2.60;99.90;;;;;;4927075;29;20222;-86
2023/01/19 10:26:52;;;;;;;9.13;7.05;;;2.60;99.90;;;;;;4917321;29;20401;-86
2023/01/19 10:29:35;;;;;;;11.98;7.47;;;2.60;99.90;;;;;;4928099;29;20482;-86
2023/01/19 10:32:24;;;;;;;8.18;6.40;;;2.70;99.90;;;;;;4913828;29;20202;-87
2023/01/19 10:34:54;;;;;;;9.98;6.72;;;2.70;99.90;;;;;;4924722;29;20205;-86
2023/01/19 10:37:29;;;;;;;10.40;6.85;;;2.70;99.90;;;;;;4933509;29;20201;-86
2023/01/19 10:40:12;;;;;;;7.70;5.85;;;2.80;99.90;;;;;;4918193;29;20215;-85
2023/01/19 10:42:40;;;;;;;8.60;6.05;;;2.90;99.90;;;;;;4922966;29;20234;-86
2023/01/19 10:45:13;;;;;;;10.77;8.20;;;3.00;99.90;;;;;;4924985;29;20233;-86
2023/01/19 10:47:41;;;;;;;10.75;7.28;;;3.00;99.90;;;;;;4926081;29;20210;-86
2023/01/19 10:50:31;;;;;;;10.80;6.35;;;3.10;99.90;;;;;;4938323;29;20213;-87
2023/01/19 10:53:04;;;;;;;7.53;5.93;;;3.10;99.90;;;;;;4925866;29;20215;-87
2023/01/19 10:55:38;;;;;;;8.30;6.53;;;3.20;99.90;;;;;;4935308;29;20234;-86
2023/01/19 10:58:25;;;;;;;8.13;5.13;;;3.10;99.90;;;;;;4934425;29;20208;-87
2023/01/19 11:00:52;;;;;;;9.32;7.10;;;3.10;99.90;;;;;;4927399;29;20207;-85
2023/01/19 11:03:23;;;;;;;9.55;6.32;;;3.20;99.90;;;;;;4931373;29;20211;-89
2023/01/19 11:05:51;;;;;;;7.70;6.90;;;3.20;99.90;;;;;;4945513;29;20475;-85
2023/01/19 11:08:26;;;;;;;8.35;6.60;;;3.20;99.90;;;;;;4924582;29;20234;-87
2023/01/19 11:11:06;;;;;;;9.98;7.10;;;3.10;99.90;;;;;;4932517;29;20519;-87
2023/01/19 11:13:38;;;;;;;6.78;5.07;;;3.30;99.90;;;;;;4925378;29;20307;-88
2023/01/19 11:16:18;;;;;;;9.95;6.25;;;3.10;99.90;;;;;;4923880;29;20202;-87
2023/01/19 11:18:50;;;;;;;7.68;6.47;;;3.10;99.90;;;;;;4931195;29;20226;-87
2023/01/19 11:21:25;;;;;;;7.32;5.47;;;3.20;99.90;;;;;;4934569;29;20447;-87
2023/01/19 11:23:58;;;;;;;8.63;5.28;;;3.20;99.90;;;;;;4931613;29;20203;-87
2023/01/19 11:26:48;;;;;;;10.00;6.80;;;3.10;99.90;;;;;;4943534;29;20206;-88
2023/01/19 11:29:22;;;;;;;9.38;6.93;;;3.30;99.90;;;;;;4923839;29;20231;-86
2023/01/19 11:31:51;;;;;;;7.68;5.95;;;3.30;99.90;;;;;;4921860;29;20558;-86
2023/01/19 11:34:24;;;;;;;8.05;5.00;;;3.30;99.90;;;;;;4930004;29;20210;-87
2023/01/19 11:37:18;;;;;;;7.50;6.00;;;3.40;99.90;;;;;;4922158;29;20700;-87
2023/01/19 11:39:57;;;;;;;6.35;5.75;;;3.20;99.90;;;;;;4925103;29;20207;-88
2023/01/19 11:42:27;;;;;;;10.45;6.32;;;3.30;99.90;;;;;;4914648;29;20210;-87
2023/01/19 11:45:06;;;;;;;7.72;4.90;;;3.20;99.90;;;;;;4929646;29;20217;-85
2023/01/19 11:47:48;;;;;;;9.05;5.50;;;3.40;99.90;;;;;;4919849;29;20418;-85
2023/01/19 11:50:30;;;;;;;10.23;5.57;;;3.40;99.90;;;;;;4917013;29;20245;-85
2023/01/19 11:52:59;;;;;;;7.18;5.07;;;3.50;99.90;;;;;;4922084;29;20412;-86
2023/01/19 11:55:44;;;;;;;6.57;5.90;;;3.60;99.90;;;;;;4928075;29;20263;-86
2023/01/19 11:58:18;;;;;;;6.80;5.18;;;3.40;99.90;;;;;;4923023;29;20260;-85
2023/01/19 12:01:00;;;;;;;9.05;5.38;;;3.40;99.90;;;;;;4925681;29;20569;-86
2023/01/19 12:03:36;;;;;;;7.00;5.10;;;3.20;99.90;;;;;;4941403;29;20225;-87
2023/01/19 12:06:08;;;;;;;8.20;4.53;;;3.20;99.90;;;;;;4927216;29;20210;-86
2023/01/19 12:08:44;;;;;;;10.23;6.15;;;3.30;99.90;;;;;;4930654;29;20231;-87
2023/01/19 12:11:17;;;;;;;9.93;4.80;;;3.40;99.90;;;;;;4927092;29;20208;-87
2023/01/19 12:13:45;;;;;;;8.55;6.00;;;3.60;99.90;;;;;;4921340;29;20219;-87
2023/01/19 12:16:22;;;;;;;9.10;4.95;;;3.60;99.90;;;;;;4924840;29;20395;-86
2023/01/19 12:18:55;;;;;;;11.30;6.10;;;3.40;99.90;;;;;;4924000;29;20511;-85
2023/01/19 12:21:23;;;;;;;8.55;4.82;;;3.40;99.90;;;;;;4917493;29;20208;-86
2023/01/19 12:24:03;;;;;;;7.18;5.15;;;3.40;99.90;;;;;;4919919;29;20224;-89
2023/01/19 12:27:00;;;;;;;11.30;4.78;;;3.50;99.90;;;;;;4923072;29;20291;-88
2023/01/19 12:29:31;;;;;;;10.75;4.72;;;3.60;99.90;;;;;;4930136;29;20245;-85
2023/01/19 12:32:17;;;;;;;7.05;4.70;;;3.60;99.90;;;;;;4937572;29;20238;-88
2023/01/19 12:34:48;;;;;;;10.55;6.20;;;3.60;99.90;;;;;;4933743;29;20206;-88
2023/01/19 12:37:31;;;;;;;10.60;6.95;;;3.40;99.90;;;;;;4928958;29;20234;-85
2023/01/19 12:40:04;;;;;;;8.73;5.75;;;3.30;99.90;;;;;;4946978;28;20200;-85
2023/01/19 12:42:32;;;;;;;15.25;7.07;;;3.40;99.90;;;;;;4937968;29;20203;-88
2023/01/19 12:45:12;;;;;;;10.02;5.53;;;3.40;99.90;;;;;;4927848;29;20310;-85
2023/01/19 12:47:48;;;;;;;9.25;5.88;;;3.50;99.90;;;;;;4933514;29;20199;-86
2023/01/19 12:50:22;;;;;;;10.50;6.32;;;3.50;99.90;;;;;;4926858;29;20199;-87
2023/01/19 12:52:57;;;;;;;12.88;6.53;;;3.50;99.90;;;;;;4921418;29;20223;-87
2023/01/19 12:55:33;;;;;;;7.47;6.00;;;3.50;99.90;;;;;;4935676;29;20203;-87
2023/01/19 12:58:12;;;;;;;7.70;6.50;;;3.50;99.90;;;;;;4919054;29;20215;-85
2023/01/19 13:00:45;;;;;;;8.10;6.30;;;3.80;99.90;;;;;;4920962;29;20214;-87
2023/01/19 13:03:18;;;;;;;9.80;5.78;;;3.70;99.90;;;;;;4923108;29;20428;-87
2023/01/19 13:05:53;;;;;;;10.50;7.72;;;3.60;99.90;;;;;;4928563;29;20198;-87
2023/01/19 13:08:23;;;;;;;8.30;6.45;;;3.50;99.90;;;;;;4931337;29;20237;-84
2023/01/19 13:11:03;;;;;;;7.55;6.50;;;3.60;99.90;;;;;;4930063;29;20215;-88
2023/01/19 13:13:49;;;;;;;10.07;6.70;;;3.70;99.90;;;;;;4925927;29;20219;-87
2023/01/19 13:16:18;;;;;;;7.75;6.22;;;3.50;99.90;;;;;;4934783;29;20202;-87
2023/01/19 13:19:07;;;;;;;10.80;8.23;;;3.40;99.90;;;;;;4933950;29;20208;-87